createdAt,value
2018-02-14T00:00:53.478Z,0.00
2018-02-14T00:01:53.448Z,0.00
2018-02-14T00:02:53.432Z,0.00
2018-02-14T00:03:53.413Z,0.00
2018-02-14T00:04:53.387Z,0.00
2018-02-14T00:05:53.367Z,0.00
2018-02-14T00:06:53.353Z,0.00
2018-02-14T00:07:53.333Z,0.00
2018-02-14T00:08:53.317Z,0.00
2018-02-14T00:09:53.282Z,0.00
2018-02-14T00:10:53.259Z,0.00
2018-02-14T00:11:53.243Z,0.00
2018-02-14T00:12:53.220Z,0.00
2018-02-14T00:13:53.203Z,0.00
2018-02-14T00:14:53.179Z,0.00
2018-02-14T00:15:53.158Z,0.00
2018-02-14T00:16:53.135Z,0.00
2018-02-14T00:17:53.116Z,0.00
2018-02-14T00:18:53.095Z,0.00
2018-02-14T00:19:53.075Z,0.00
2018-02-14T00:20:53.049Z,0.00
2018-02-14T00:21:53.029Z,0.00
2018-02-14T00:22:53.003Z,0.00
2018-02-14T00:23:52.993Z,0.00
2018-02-14T00:24:52.965Z,0.00
2018-02-14T00:25:52.945Z,0.00
2018-02-14T00:26:52.927Z,0.00
2018-02-14T00:27:52.902Z,0.00
2018-02-14T00:28:52.887Z,0.00
2018-02-14T00:29:52.857Z,0.00
2018-02-14T00:30:52.840Z,0.00
2018-02-14T00:31:52.817Z,0.00
2018-02-14T00:32:52.795Z,0.00
2018-02-14T00:33:52.777Z,0.00
2018-02-14T00:34:52.755Z,0.00
2018-02-14T00:35:52.731Z,0.00
2018-02-14T00:36:52.707Z,0.00
2018-02-14T00:37:52.698Z,0.00
2018-02-14T00:38:52.665Z,0.00
2018-02-14T00:39:52.649Z,0.00
2018-02-14T00:40:52.629Z,0.00
2018-02-14T00:41:52.605Z,0.00
2018-02-14T00:42:52.587Z,0.00
2018-02-14T00:43:52.571Z,0.00
2018-02-14T00:44:52.545Z,0.00
2018-02-14T00:45:52.529Z,0.00
2018-02-14T00:46:52.509Z,0.00
2018-02-14T00:47:52.483Z,0.00
2018-02-14T00:48:52.463Z,0.00
2018-02-14T00:49:52.431Z,0.00
2018-02-14T00:50:52.415Z,0.00
2018-02-14T00:51:52.394Z,0.00
2018-02-14T00:52:52.372Z,0.00
2018-02-14T00:53:52.357Z,0.00
2018-02-14T00:54:52.335Z,0.00
2018-02-14T00:55:52.305Z,0.00
2018-02-14T00:56:52.286Z,0.00
2018-02-14T00:57:52.268Z,0.00
2018-02-14T00:58:52.245Z,0.00
2018-02-14T00:59:52.221Z,0.00
2018-02-14T01:00:52.204Z,0.00
2018-02-14T01:01:52.180Z,0.00
2018-02-14T01:02:52.160Z,0.00
2018-02-14T01:03:52.139Z,0.00
2018-02-14T01:04:52.120Z,0.00
2018-02-14T01:05:52.097Z,0.00
2018-02-14T01:06:52.075Z,0.00
2018-02-14T01:07:52.057Z,0.00
2018-02-14T01:08:52.035Z,0.00
2018-02-14T01:09:52.015Z,0.00
2018-02-14T01:10:51.994Z,0.00
2018-02-14T01:11:51.969Z,0.00
2018-02-14T01:12:51.949Z,0.00
2018-02-14T01:13:51.931Z,0.00
2018-02-14T01:14:51.910Z,0.00
2018-02-14T01:15:51.892Z,0.00
2018-02-14T01:16:51.865Z,0.00
2018-02-14T01:17:51.844Z,0.00
2018-02-14T01:18:51.817Z,0.00
2018-02-14T01:19:51.806Z,0.00
2018-02-14T01:20:51.784Z,0.00
2018-02-14T01:21:51.763Z,0.00
2018-02-14T01:22:51.741Z,0.00
2018-02-14T01:23:51.717Z,0.00
2018-02-14T01:24:51.703Z,0.00
2018-02-14T01:25:51.670Z,0.00
2018-02-14T01:26:51.660Z,0.00
2018-02-14T01:27:51.636Z,0.00
2018-02-14T01:28:51.612Z,0.00
2018-02-14T01:29:51.588Z,0.00
2018-02-14T01:30:51.570Z,0.00
2018-02-14T01:31:51.553Z,0.00
2018-02-14T01:32:51.530Z,0.00
2018-02-14T01:33:51.510Z,0.00
2018-02-14T01:34:51.488Z,0.00
2018-02-14T01:35:51.463Z,0.00
2018-02-14T01:36:51.446Z,0.00
2018-02-14T01:37:51.422Z,0.00
2018-02-14T01:38:51.400Z,0.00
2018-02-14T01:39:51.382Z,0.00
2018-02-14T01:40:51.359Z,0.00
2018-02-14T01:41:51.339Z,0.00
2018-02-14T01:42:51.318Z,0.00
2018-02-14T01:43:51.298Z,0.00
2018-02-14T01:44:51.276Z,0.00
2018-02-14T01:45:51.249Z,0.00
2018-02-14T01:46:51.235Z,0.00
2018-02-14T01:47:51.208Z,0.00
2018-02-14T01:48:51.189Z,0.00
2018-02-14T01:49:51.168Z,0.00
2018-02-14T01:50:51.150Z,0.00
2018-02-14T01:51:51.128Z,0.00
2018-02-14T01:52:51.104Z,0.00
2018-02-14T01:53:51.086Z,0.00
2018-02-14T01:54:51.058Z,0.00
2018-02-14T01:55:51.040Z,0.00
2018-02-14T01:56:51.020Z,0.00
2018-02-14T01:57:50.996Z,0.00
2018-02-14T01:58:50.976Z,0.00
2018-02-14T01:59:50.958Z,0.00
2018-02-14T02:00:50.936Z,0.00
2018-02-14T02:01:50.918Z,0.00
2018-02-14T02:02:50.900Z,0.00
2018-02-14T02:03:50.876Z,0.00
2018-02-14T02:04:50.854Z,0.00
2018-02-14T02:05:50.830Z,0.00
2018-02-14T02:06:50.807Z,0.00
2018-02-14T02:07:50.786Z,0.00
2018-02-14T02:08:50.768Z,0.00
2018-02-14T02:09:50.748Z,0.00
2018-02-14T02:10:50.720Z,0.00
2018-02-14T02:11:50.705Z,0.00
2018-02-14T02:12:50.681Z,0.00
2018-02-14T02:13:50.657Z,0.00
2018-02-14T02:14:50.644Z,0.00
2018-02-14T02:15:50.622Z,0.00
2018-02-14T02:16:50.600Z,0.00
2018-02-14T02:17:50.577Z,0.00
2018-02-14T02:18:50.556Z,0.00
2018-02-14T02:19:50.534Z,0.00
2018-02-14T02:20:50.514Z,0.00
2018-02-14T02:21:50.492Z,0.00
2018-02-14T02:22:50.467Z,0.00
2018-02-14T02:23:50.448Z,0.00
2018-02-14T02:24:50.434Z,0.00
2018-02-14T02:25:50.407Z,0.00
2018-02-14T02:26:50.388Z,0.00
2018-02-14T02:27:50.363Z,0.00
2018-02-14T02:28:50.338Z,0.00
2018-02-14T02:29:50.324Z,0.00
2018-02-14T02:30:50.300Z,0.00
2018-02-14T02:31:50.286Z,0.00
2018-02-14T02:32:50.256Z,0.00
2018-02-14T02:33:50.238Z,0.00
2018-02-14T02:34:50.218Z,0.00
2018-02-14T02:35:50.194Z,0.00
2018-02-14T02:36:50.178Z,0.00
2018-02-14T02:37:50.152Z,0.00
2018-02-14T02:38:50.137Z,0.00
2018-02-14T02:39:50.110Z,0.00
2018-02-14T02:40:50.092Z,0.00
2018-02-14T02:41:50.064Z,0.00
2018-02-14T02:42:50.049Z,0.00
2018-02-14T02:43:50.028Z,0.00
2018-02-14T02:44:50.004Z,0.00
2018-02-14T02:45:49.984Z,0.00
2018-02-14T02:46:49.960Z,0.00
2018-02-14T02:47:49.942Z,0.00
2018-02-14T02:48:49.924Z,0.00
2018-02-14T02:49:49.895Z,0.00
2018-02-14T02:50:49.876Z,0.00
2018-02-14T02:51:49.858Z,0.00
2018-02-14T02:52:49.836Z,0.00
2018-02-14T02:53:49.812Z,0.00
2018-02-14T02:54:49.794Z,0.00
2018-02-14T02:55:49.780Z,0.00
2018-02-14T02:56:49.752Z,0.00
2018-02-14T02:57:49.730Z,0.00
2018-02-14T02:58:49.713Z,0.00
2018-02-14T02:59:49.686Z,0.00
2018-02-14T03:00:49.669Z,0.00
2018-02-14T03:01:49.645Z,0.00
2018-02-14T03:02:49.622Z,0.00
2018-02-14T03:03:49.606Z,0.00
2018-02-14T03:04:49.578Z,0.00
2018-02-14T03:05:49.560Z,0.00
2018-02-14T03:06:49.538Z,0.00
2018-02-14T03:07:49.518Z,0.00
2018-02-14T03:08:49.498Z,0.00
2018-02-14T03:09:49.474Z,0.00
2018-02-14T03:10:49.454Z,0.00
2018-02-14T03:11:49.436Z,0.00
2018-02-14T03:12:49.414Z,0.00
2018-02-14T03:13:49.386Z,0.00
2018-02-14T03:14:49.372Z,0.00
2018-02-14T03:15:49.353Z,0.00
2018-02-14T03:16:49.328Z,0.00
2018-02-14T03:17:49.306Z,0.00
2018-02-14T03:18:49.284Z,0.00
2018-02-14T03:19:49.265Z,0.00
2018-02-14T03:20:49.240Z,0.00
2018-02-14T03:21:49.224Z,0.00
2018-02-14T03:22:49.194Z,0.00
2018-02-14T03:23:49.178Z,0.00
2018-02-14T03:24:49.157Z,0.00
2018-02-14T03:25:49.138Z,0.00
2018-02-14T03:26:49.114Z,0.00
2018-02-14T03:27:49.094Z,0.00
2018-02-14T03:28:49.076Z,0.00
2018-02-14T03:29:49.054Z,0.00
2018-02-14T03:30:49.029Z,0.00
2018-02-14T03:31:49.002Z,0.00
2018-02-14T03:32:48.980Z,0.00
2018-02-14T03:33:48.966Z,0.00
2018-02-14T03:34:48.940Z,0.00
2018-02-14T03:35:48.926Z,0.00
2018-02-14T03:36:48.897Z,0.00
2018-02-14T03:37:48.878Z,0.00
2018-02-14T03:38:48.861Z,0.00
2018-02-14T03:39:48.838Z,0.00
2018-02-14T03:40:48.809Z,0.00
2018-02-14T03:41:48.791Z,0.00
2018-02-14T03:42:48.772Z,0.00
2018-02-14T03:43:48.748Z,0.00
2018-02-14T03:44:48.726Z,0.00
2018-02-14T03:45:48.710Z,0.00
2018-02-14T03:46:48.684Z,0.00
2018-02-14T03:47:48.668Z,0.00
2018-02-14T03:48:48.646Z,0.00
2018-02-14T03:49:48.624Z,0.00
2018-02-14T03:50:48.600Z,0.00
2018-02-14T03:51:48.582Z,0.00
2018-02-14T03:52:48.566Z,0.00
2018-02-14T03:53:48.538Z,0.00
2018-02-14T03:54:48.520Z,0.00
2018-02-14T03:55:48.496Z,0.00
2018-02-14T03:56:48.473Z,0.00
2018-02-14T03:57:48.456Z,0.00
2018-02-14T03:58:48.436Z,0.00
2018-02-14T03:59:48.414Z,0.00
2018-02-14T04:00:48.390Z,0.00
2018-02-14T04:01:48.368Z,0.00
2018-02-14T04:02:48.341Z,0.00
2018-02-14T04:03:48.324Z,0.00
2018-02-14T04:04:48.304Z,0.00
2018-02-14T04:05:48.284Z,0.00
2018-02-14T04:06:48.262Z,0.00
2018-02-14T04:07:48.240Z,0.00
2018-02-14T04:08:48.222Z,0.00
2018-02-14T04:09:48.212Z,0.00
2018-02-14T04:10:48.174Z,0.00
2018-02-14T04:11:48.153Z,0.00
2018-02-14T04:12:48.134Z,0.00
2018-02-14T04:13:48.113Z,0.00
2018-02-14T04:14:48.090Z,0.00
2018-02-14T04:15:48.070Z,0.00
2018-02-14T04:16:48.046Z,0.00
2018-02-14T04:17:48.026Z,0.00
2018-02-14T04:18:48.007Z,0.00
2018-02-14T04:19:47.980Z,0.00
2018-02-14T04:20:47.962Z,0.00
2018-02-14T04:21:47.944Z,0.00
2018-02-14T04:22:47.918Z,0.00
2018-02-14T04:23:47.896Z,0.00
2018-02-14T04:24:47.876Z,0.00
2018-02-14T04:25:47.860Z,0.00
2018-02-14T04:26:47.836Z,0.00
2018-02-14T04:27:47.814Z,0.00
2018-02-14T04:28:47.794Z,0.00
2018-02-14T04:29:47.768Z,0.00
2018-02-14T04:30:47.748Z,0.00
2018-02-14T04:31:47.726Z,0.00
2018-02-14T04:32:47.706Z,0.00
2018-02-14T04:33:47.689Z,0.00
2018-02-14T04:34:47.664Z,0.00
2018-02-14T04:35:47.643Z,0.00
2018-02-14T04:36:47.628Z,0.00
2018-02-14T04:37:47.598Z,0.00
2018-02-14T04:38:47.574Z,0.00
2018-02-14T04:39:47.558Z,0.00
2018-02-14T04:40:47.533Z,0.00
2018-02-14T04:41:47.516Z,0.00
2018-02-14T04:42:47.497Z,0.00
2018-02-14T04:43:47.470Z,0.00
2018-02-14T04:44:47.451Z,0.00
2018-02-14T04:45:47.428Z,0.00
2018-02-14T04:46:47.414Z,0.00
2018-02-14T04:47:47.392Z,0.00
2018-02-14T04:48:47.364Z,0.00
2018-02-14T04:49:47.368Z,0.00
2018-02-14T04:50:47.322Z,0.00
2018-02-14T04:51:47.300Z,0.00
2018-02-14T04:52:47.278Z,0.00
2018-02-14T04:53:47.261Z,0.00
2018-02-14T04:54:47.246Z,0.00
2018-02-14T04:55:47.218Z,0.00
2018-02-14T04:56:47.197Z,0.00
2018-02-14T04:57:47.170Z,0.00
2018-02-14T04:58:47.150Z,0.00
2018-02-14T04:59:47.127Z,0.00
2018-02-14T05:00:47.108Z,0.00
2018-02-14T05:01:47.084Z,0.00
2018-02-14T05:02:47.064Z,0.00
2018-02-14T05:03:47.041Z,0.00
2018-02-14T05:04:47.022Z,0.00
2018-02-14T05:05:47.001Z,0.00
2018-02-14T05:06:46.976Z,0.00
2018-02-14T05:07:46.959Z,0.00
2018-02-14T05:08:46.940Z,0.00
2018-02-14T05:09:46.915Z,0.00
2018-02-14T05:10:46.896Z,0.00
2018-02-14T05:11:46.877Z,0.00
2018-02-14T05:12:46.850Z,0.00
2018-02-14T05:13:46.829Z,0.00
2018-02-14T05:14:46.804Z,0.00
2018-02-14T05:15:46.788Z,0.00
2018-02-14T05:16:46.764Z,0.00
2018-02-14T05:17:46.746Z,0.00
2018-02-14T05:18:46.716Z,0.00
2018-02-14T05:19:46.696Z,0.00
2018-02-14T05:20:46.678Z,0.00
2018-02-14T05:21:46.656Z,0.00
2018-02-14T05:22:46.634Z,0.00
2018-02-14T05:23:46.608Z,0.00
2018-02-14T05:24:46.586Z,0.00
2018-02-14T05:25:46.565Z,0.00
2018-02-14T05:26:46.544Z,0.00
2018-02-14T05:27:46.526Z,0.00
2018-02-14T05:28:46.502Z,0.00
2018-02-14T05:29:46.482Z,0.00
2018-02-14T05:30:46.460Z,0.00
2018-02-14T05:31:46.434Z,0.00
2018-02-14T05:32:46.412Z,0.00
2018-02-14T05:33:46.396Z,0.00
2018-02-14T05:34:46.370Z,0.00
2018-02-14T05:35:46.350Z,0.00
2018-02-14T05:36:46.328Z,0.00
2018-02-14T05:37:46.314Z,0.00
2018-02-14T05:38:46.282Z,0.00
2018-02-14T05:39:46.266Z,0.00
2018-02-14T05:40:46.241Z,0.00
2018-02-14T05:41:46.218Z,0.00
2018-02-14T05:42:46.192Z,0.00
2018-02-14T05:43:46.175Z,0.00
2018-02-14T05:44:46.152Z,0.00
2018-02-14T05:45:46.128Z,0.00
2018-02-14T05:46:46.111Z,0.00
2018-02-14T05:47:46.091Z,0.00
2018-02-14T05:48:46.067Z,0.00
2018-02-14T05:49:46.047Z,0.00
2018-02-14T05:50:46.021Z,0.00
2018-02-14T05:51:46.000Z,0.00
2018-02-14T05:52:45.977Z,0.00
2018-02-14T05:53:45.958Z,0.00
2018-02-14T05:54:45.937Z,0.00
2018-02-14T05:55:45.913Z,0.00
2018-02-14T05:56:45.887Z,0.00
2018-02-14T05:57:45.870Z,0.00
2018-02-14T05:58:45.847Z,0.00
2018-02-14T05:59:45.847Z,0.00
2018-02-14T06:00:45.803Z,0.00
2018-02-14T06:01:45.785Z,0.00
2018-02-14T06:02:45.757Z,0.00
2018-02-14T06:03:45.735Z,4.00
2018-02-14T06:04:45.719Z,4.00
2018-02-14T06:05:45.696Z,0.00
2018-02-14T06:06:45.665Z,4.00
2018-02-14T06:07:45.647Z,0.00
2018-02-14T06:08:45.627Z,4.00
2018-02-14T06:09:45.605Z,0.00
2018-02-14T06:10:45.581Z,4.00
2018-02-14T06:11:45.557Z,4.00
2018-02-14T06:12:45.539Z,4.00
2018-02-14T06:13:45.519Z,8.00
2018-02-14T06:14:45.495Z,8.00
2018-02-14T06:15:45.472Z,12.00
2018-02-14T06:16:45.453Z,12.00
2018-02-14T06:17:45.427Z,12.00
2018-02-14T06:18:45.403Z,16.00
2018-02-14T06:19:45.380Z,20.00
2018-02-14T06:20:45.365Z,20.00
2018-02-14T06:21:45.335Z,24.00
2018-02-14T06:22:45.319Z,24.00
2018-02-14T06:23:45.301Z,28.00
2018-02-14T06:24:45.275Z,36.00
2018-02-14T06:25:45.251Z,36.00
2018-02-14T06:26:45.227Z,40.00
2018-02-14T06:27:45.209Z,40.00
2018-02-14T06:28:45.183Z,48.00
2018-02-14T06:29:45.161Z,52.00
2018-02-14T06:30:45.139Z,60.00
2018-02-14T06:31:45.115Z,64.00
2018-02-14T06:32:45.097Z,68.00
2018-02-14T06:33:45.073Z,72.00
2018-02-14T06:34:45.049Z,80.00
2018-02-14T06:35:45.031Z,84.00
2018-02-14T06:36:45.008Z,88.00
2018-02-14T06:37:44.989Z,96.00
2018-02-14T06:38:44.965Z,100.00
2018-02-14T06:39:44.940Z,104.00
2018-02-14T06:40:44.919Z,112.00
2018-02-14T06:41:44.894Z,116.00
2018-02-14T06:42:44.875Z,124.00
2018-02-14T06:43:44.845Z,128.00
2018-02-14T06:44:44.829Z,140.00
2018-02-14T06:45:44.809Z,144.00
2018-02-14T06:46:44.783Z,148.00
2018-02-14T06:47:44.767Z,152.00
2018-02-14T06:48:44.775Z,160.00
2018-02-14T06:49:44.723Z,168.00
2018-02-14T06:50:44.695Z,172.00
2018-02-14T06:51:44.671Z,176.00
2018-02-14T06:52:44.654Z,184.00
2018-02-14T06:53:44.627Z,188.00
2018-02-14T06:54:44.605Z,196.00
2018-02-14T06:55:44.583Z,200.00
2018-02-14T06:56:44.560Z,208.00
2018-02-14T06:57:44.543Z,212.00
2018-02-14T06:58:44.519Z,220.00
2018-02-14T06:59:44.497Z,224.00
2018-02-14T07:00:44.471Z,232.00
2018-02-14T07:01:44.446Z,236.00
2018-02-14T07:02:44.425Z,240.00
2018-02-14T07:03:44.406Z,244.00
2018-02-14T07:04:44.387Z,248.00
2018-02-14T07:05:44.358Z,256.00
2018-02-14T07:06:44.340Z,264.00
2018-02-14T07:07:44.315Z,268.00
2018-02-14T07:08:44.295Z,276.00
2018-02-14T07:09:44.271Z,280.00
2018-02-14T07:10:44.249Z,284.00
2018-02-14T07:11:44.229Z,292.00
2018-02-14T07:12:44.217Z,296.00
2018-02-14T07:13:44.187Z,304.00
2018-02-14T07:14:44.159Z,304.00
2018-02-14T07:15:44.133Z,312.00
2018-02-14T07:16:44.114Z,316.00
2018-02-14T07:17:44.095Z,324.00
2018-02-14T07:18:44.065Z,332.00
2018-02-14T07:19:44.048Z,336.00
2018-02-14T07:20:44.029Z,344.00
2018-02-14T07:21:44.003Z,348.00
2018-02-14T07:22:44.020Z,352.00
2018-02-14T07:23:43.959Z,360.00
2018-02-14T07:24:43.943Z,368.00
2018-02-14T07:25:43.915Z,372.00
2018-02-14T07:26:43.895Z,380.00
2018-02-14T07:27:43.871Z,384.00
2018-02-14T07:28:43.849Z,392.00
2018-02-14T07:29:43.827Z,396.00
2018-02-14T07:30:43.801Z,404.00
2018-02-14T07:31:43.784Z,408.00
2018-02-14T07:32:43.761Z,416.00
2018-02-14T07:33:43.740Z,424.00
2018-02-14T07:34:43.721Z,432.00
2018-02-14T07:35:43.695Z,440.00
2018-02-14T07:36:43.674Z,452.00
2018-02-14T07:37:43.647Z,456.00
2018-02-14T07:38:43.625Z,464.00
2018-02-14T07:39:43.607Z,468.00
2018-02-14T07:40:43.593Z,476.00
2018-02-14T07:41:43.569Z,484.00
2018-02-14T07:42:43.537Z,488.00
2018-02-14T07:43:43.515Z,500.00
2018-02-14T07:44:43.492Z,508.00
2018-02-14T07:45:43.471Z,520.00
2018-02-14T07:46:43.447Z,528.00
2018-02-14T07:47:43.425Z,548.00
2018-02-14T07:48:43.408Z,576.00
2018-02-14T07:49:43.385Z,600.00
2018-02-14T07:50:43.383Z,636.00
2018-02-14T07:51:43.335Z,664.00
2018-02-14T07:52:43.319Z,692.00
2018-02-14T07:53:43.291Z,780.00
2018-02-14T07:54:43.275Z,912.00
2018-02-14T07:55:43.247Z,1144.00
2018-02-14T07:56:43.229Z,1356.00
2018-02-14T07:57:43.209Z,1440.00
2018-02-14T07:58:43.187Z,1484.00
2018-02-14T07:59:43.163Z,1512.00
2018-02-14T08:00:43.141Z,1544.00
2018-02-14T08:01:43.123Z,1576.00
2018-02-14T08:02:43.095Z,1620.00
2018-02-14T08:03:43.081Z,1664.00
2018-02-14T08:04:43.058Z,1708.00
2018-02-14T08:05:43.033Z,1744.00
2018-02-14T08:06:43.011Z,1788.00
2018-02-14T08:07:42.989Z,1836.00
2018-02-14T08:08:42.971Z,1880.00
2018-02-14T08:09:42.949Z,1916.00
2018-02-14T08:10:42.923Z,1880.00
2018-02-14T08:11:42.901Z,1876.00
2018-02-14T08:12:42.886Z,2064.00
2018-02-14T08:13:42.859Z,2096.00
2018-02-14T08:14:42.839Z,1528.00
2018-02-14T08:15:42.821Z,2184.00
2018-02-14T08:16:42.803Z,2208.00
2018-02-14T08:17:42.780Z,2044.00
2018-02-14T08:18:42.755Z,2276.00
2018-02-14T08:19:42.741Z,2328.00
2018-02-14T08:20:42.716Z,2368.00
2018-02-14T08:21:42.696Z,2412.00
2018-02-14T08:22:42.675Z,2452.00
2018-02-14T08:23:42.655Z,2472.00
2018-02-14T08:24:42.633Z,2504.00
2018-02-14T08:25:42.617Z,2440.00
2018-02-14T08:26:42.589Z,2604.00
2018-02-14T08:27:42.574Z,2612.00
2018-02-14T08:28:42.556Z,2616.00
2018-02-14T08:29:42.533Z,2504.00
2018-02-14T08:30:42.512Z,2768.00
2018-02-14T08:31:42.489Z,2688.00
2018-02-14T08:32:42.478Z,2668.00
2018-02-14T08:33:42.456Z,1952.00
2018-02-14T08:34:42.437Z,1232.00
2018-02-14T08:35:42.419Z,1516.00
2018-02-14T08:36:42.395Z,1248.00
2018-02-14T08:37:42.373Z,1112.00
2018-02-14T08:38:42.355Z,2424.00
2018-02-14T08:39:42.340Z,1784.00
2018-02-14T08:40:42.318Z,2100.00
2018-02-14T08:41:42.304Z,2980.00
2018-02-14T08:42:42.277Z,2972.00
2018-02-14T08:43:42.259Z,3092.00
2018-02-14T08:44:42.243Z,3164.00
2018-02-14T08:45:42.223Z,3204.00
2018-02-14T08:46:42.203Z,3296.00
2018-02-14T08:47:42.190Z,3368.00
2018-02-14T08:48:42.164Z,3276.00
2018-02-14T08:49:42.148Z,2836.00
2018-02-14T08:50:42.132Z,2000.00
2018-02-14T08:51:42.108Z,2056.00
2018-02-14T08:52:42.088Z,3568.00
2018-02-14T08:53:42.066Z,3608.00
2018-02-14T08:54:42.053Z,3528.00
2018-02-14T08:55:42.032Z,3560.00
2018-02-14T08:56:42.014Z,3648.00
2018-02-14T08:57:41.990Z,3696.00
2018-02-14T08:58:41.978Z,3716.00
2018-02-14T08:59:41.957Z,3748.00
2018-02-14T09:00:41.939Z,3772.00
2018-02-14T09:01:41.922Z,3808.00
2018-02-14T09:02:41.907Z,3820.00
2018-02-14T09:03:41.892Z,3864.00
2018-02-14T09:04:41.874Z,3888.00
2018-02-14T09:05:41.850Z,3924.00
2018-02-14T09:06:41.834Z,3908.00
2018-02-14T09:07:41.820Z,3948.00
2018-02-14T09:08:41.802Z,3872.00
2018-02-14T09:09:41.778Z,3972.00
2018-02-14T09:10:41.767Z,4028.00
2018-02-14T09:11:41.748Z,4052.00
2018-02-14T09:12:41.727Z,4100.00
2018-02-14T09:13:41.712Z,4104.00
2018-02-14T09:14:41.691Z,4076.00
2018-02-14T09:15:41.679Z,4092.00
2018-02-14T09:16:41.663Z,4116.00
2018-02-14T09:17:41.639Z,3944.00
2018-02-14T09:18:41.631Z,4192.00
2018-02-14T09:19:41.609Z,4272.00
2018-02-14T09:20:41.595Z,4296.00
2018-02-14T09:21:41.581Z,4344.00
2018-02-14T09:22:41.559Z,4364.00
2018-02-14T09:23:41.541Z,4360.00
2018-02-14T09:24:41.587Z,4396.00
2018-02-14T09:25:41.512Z,4424.00
2018-02-14T09:26:41.493Z,4380.00
2018-02-14T09:27:41.483Z,4424.00
2018-02-14T09:28:41.461Z,4404.00
2018-02-14T09:29:41.443Z,4452.00
2018-02-14T09:30:41.433Z,4484.00
2018-02-14T09:31:41.413Z,4540.00
2018-02-14T09:32:41.399Z,4576.00
2018-02-14T09:33:41.382Z,4568.00
2018-02-14T09:34:41.365Z,4600.00
2018-02-14T09:35:41.349Z,4580.00
2018-02-14T09:36:41.333Z,4684.00
2018-02-14T09:37:41.319Z,4752.00
2018-02-14T09:38:41.301Z,4788.00
2018-02-14T09:39:41.289Z,4824.00
2018-02-14T09:40:41.275Z,4872.00
2018-02-14T09:41:41.259Z,4912.00
2018-02-14T09:42:41.239Z,4952.00
2018-02-14T09:43:41.228Z,4996.00
2018-02-14T09:44:41.212Z,5040.00
2018-02-14T09:45:41.200Z,5088.00
2018-02-14T09:46:41.181Z,5144.00
2018-02-14T09:47:41.165Z,5192.00
2018-02-14T09:48:41.145Z,5228.00
2018-02-14T09:49:41.133Z,5268.00
2018-02-14T09:50:41.113Z,5308.00
2018-02-14T09:51:41.100Z,5344.00
2018-02-14T09:52:41.085Z,5392.00
2018-02-14T09:53:41.075Z,5452.00
2018-02-14T09:54:41.062Z,5504.00
2018-02-14T09:55:41.048Z,5528.00
2018-02-14T09:56:41.028Z,5576.00
2018-02-14T09:57:41.009Z,5620.00
2018-02-14T09:58:40.996Z,5704.00
2018-02-14T09:59:40.982Z,5788.00
2018-02-14T10:00:40.971Z,5924.00
2018-02-14T10:01:40.956Z,6048.00
2018-02-14T10:02:40.940Z,6100.00
2018-02-14T10:03:40.920Z,6152.00
2018-02-14T10:04:40.911Z,5984.00
2018-02-14T10:05:40.893Z,6132.00
2018-02-14T10:06:40.894Z,6212.00
2018-02-14T10:07:40.866Z,6280.00
2018-02-14T10:08:40.850Z,6260.00
2018-02-14T10:09:40.842Z,6256.00
2018-02-14T10:10:40.824Z,6208.00
2018-02-14T10:11:40.807Z,6156.00
2018-02-14T10:12:40.792Z,6128.00
2018-02-14T10:13:40.782Z,6080.00
2018-02-14T10:14:40.768Z,6116.00
2018-02-14T10:15:40.765Z,6116.00
2018-02-14T10:16:40.742Z,6152.00
2018-02-14T10:17:40.726Z,6144.00
2018-02-14T10:18:40.712Z,6144.00
2018-02-14T10:19:40.700Z,6160.00
2018-02-14T10:20:40.689Z,6164.00
2018-02-14T10:21:40.674Z,6144.00
2018-02-14T10:22:40.664Z,6124.00
2018-02-14T10:23:40.648Z,6104.00
2018-02-14T10:24:40.637Z,6080.00
2018-02-14T10:25:40.623Z,6028.00
2018-02-14T10:26:40.604Z,6008.00
2018-02-14T10:27:40.592Z,6036.00
2018-02-14T10:28:40.576Z,6036.00
2018-02-14T10:29:40.560Z,6044.00
2018-02-14T10:30:40.548Z,6044.00
2018-02-14T10:31:40.544Z,6072.00
2018-02-14T10:32:40.525Z,6096.00
2018-02-14T10:33:40.512Z,6100.00
2018-02-14T10:34:40.501Z,6104.00
2018-02-14T10:35:40.484Z,6120.00
2018-02-14T10:36:40.467Z,6124.00
2018-02-14T10:37:40.460Z,6160.00
2018-02-14T10:38:40.442Z,6180.00
2018-02-14T10:39:40.437Z,6176.00
2018-02-14T10:40:40.414Z,6200.00
2018-02-14T10:41:40.402Z,6224.00
2018-02-14T10:42:40.389Z,6240.00
2018-02-14T10:43:40.378Z,6252.00
2018-02-14T10:44:40.371Z,6276.00
2018-02-14T10:45:40.354Z,6296.00
2018-02-14T10:46:40.336Z,6320.00
2018-02-14T10:47:40.350Z,6344.00
2018-02-14T10:48:40.316Z,6360.00
2018-02-14T10:49:40.296Z,6380.00
2018-02-14T10:50:40.282Z,6400.00
2018-02-14T10:51:40.275Z,6416.00
2018-02-14T10:52:40.257Z,6436.00
2018-02-14T10:53:40.244Z,6460.00
2018-02-14T10:54:40.238Z,6464.00
2018-02-14T10:55:40.222Z,6476.00
2018-02-14T10:56:40.206Z,6496.00
2018-02-14T10:57:40.194Z,6516.00
2018-02-14T10:58:40.180Z,6532.00
2018-02-14T10:59:40.166Z,6548.00
2018-02-14T11:00:40.153Z,6568.00
2018-02-14T11:01:40.145Z,6596.00
2018-02-14T11:02:40.130Z,6616.00
2018-02-14T11:03:40.115Z,6640.00
2018-02-14T11:04:40.100Z,6652.00
2018-02-14T11:05:40.096Z,6672.00
2018-02-14T11:06:40.081Z,6692.00
2018-02-14T11:07:40.070Z,6704.00
2018-02-14T11:08:40.057Z,6732.00
2018-02-14T11:09:40.042Z,6764.00
2018-02-14T11:10:40.032Z,6776.00
2018-02-14T11:11:40.020Z,6784.00
2018-02-14T11:12:40.010Z,6804.00
2018-02-14T11:13:39.989Z,6860.00
2018-02-14T11:14:39.983Z,6912.00
2018-02-14T11:15:39.975Z,6944.00
2018-02-14T11:16:39.962Z,7008.00
2018-02-14T11:17:39.947Z,7040.00
2018-02-14T11:18:39.942Z,7112.00
2018-02-14T11:19:39.958Z,7148.00
2018-02-14T11:20:39.912Z,7216.00
2018-02-14T11:21:39.895Z,7148.00
2018-02-14T11:22:39.889Z,7396.00
2018-02-14T11:23:39.881Z,7528.00
2018-02-14T11:24:39.868Z,6100.00
2018-02-14T11:25:39.854Z,7136.00
2018-02-14T11:26:39.848Z,5984.00
2018-02-14T11:27:39.834Z,6968.00
2018-02-14T11:28:39.818Z,7096.00
2018-02-14T11:29:39.814Z,4600.00
2018-02-14T11:30:39.796Z,8016.00
2018-02-14T11:31:39.791Z,7392.00
2018-02-14T11:32:39.777Z,5384.00
2018-02-14T11:33:39.768Z,5664.00
2018-02-14T11:34:39.756Z,7928.00
2018-02-14T11:35:39.745Z,7600.00
2018-02-14T11:36:39.743Z,5860.00
2018-02-14T11:37:39.724Z,5636.00
2018-02-14T11:38:39.710Z,6816.00
2018-02-14T11:39:39.704Z,7208.00
2018-02-14T11:40:39.694Z,7048.00
2018-02-14T11:41:39.676Z,5552.00
2018-02-14T11:42:39.670Z,4352.00
2018-02-14T11:43:39.658Z,3412.00
2018-02-14T11:44:39.642Z,4464.00
2018-02-14T11:45:39.641Z,3288.00
2018-02-14T11:46:39.626Z,3516.00
2018-02-14T11:47:39.618Z,3276.00
2018-02-14T11:48:39.602Z,4688.00
2018-02-14T11:49:39.592Z,4828.00
2018-02-14T11:50:39.582Z,4508.00
2018-02-14T11:51:39.572Z,3956.00
2018-02-14T11:52:39.560Z,5564.00
2018-02-14T11:53:39.546Z,6664.00
2018-02-14T11:54:39.534Z,6716.00
2018-02-14T11:55:39.524Z,2732.00
2018-02-14T11:56:39.521Z,7932.00
2018-02-14T11:57:39.502Z,6740.00
2018-02-14T11:58:39.492Z,7496.00
2018-02-14T11:59:39.478Z,3236.00
2018-02-14T12:00:39.472Z,2808.00
2018-02-14T12:01:39.458Z,4776.00
2018-02-14T12:02:39.446Z,7368.00
2018-02-14T12:03:39.438Z,7260.00
2018-02-14T12:04:39.424Z,7220.00
2018-02-14T12:05:39.410Z,7184.00
2018-02-14T12:06:39.404Z,7192.00
2018-02-14T12:07:39.394Z,7172.00
2018-02-14T12:08:39.384Z,7140.00
2018-02-14T12:09:39.372Z,7156.00
2018-02-14T12:10:39.361Z,7128.00
2018-02-14T12:11:39.344Z,7088.00
2018-02-14T12:12:39.344Z,7120.00
2018-02-14T12:13:39.328Z,7140.00
2018-02-14T12:14:39.321Z,7120.00
2018-02-14T12:15:39.302Z,7116.00
2018-02-14T12:16:39.294Z,7136.00
2018-02-14T12:17:39.281Z,7104.00
2018-02-14T12:18:39.272Z,7128.00
2018-02-14T12:19:39.300Z,7136.00
2018-02-14T12:20:39.254Z,7156.00
2018-02-14T12:21:39.242Z,7160.00
2018-02-14T12:22:39.226Z,7220.00
2018-02-14T12:23:39.219Z,7196.00
2018-02-14T12:24:39.214Z,7124.00
2018-02-14T12:25:39.200Z,7108.00
2018-02-14T12:26:39.192Z,7136.00
2018-02-14T12:27:39.178Z,7068.00
2018-02-14T12:28:39.168Z,3844.00
2018-02-14T12:29:39.163Z,5516.00
2018-02-14T12:30:39.142Z,6068.00
2018-02-14T12:31:39.138Z,4848.00
2018-02-14T12:32:39.124Z,6908.00
2018-02-14T12:33:39.116Z,6596.00
2018-02-14T12:34:39.104Z,7232.00
2018-02-14T12:35:39.098Z,7228.00
2018-02-14T12:36:39.088Z,7032.00
2018-02-14T12:37:39.076Z,7512.00
2018-02-14T12:38:39.069Z,7004.00
2018-02-14T12:39:39.059Z,7196.00
2018-02-14T12:40:39.046Z,7504.00
2018-02-14T12:41:39.034Z,7420.00
2018-02-14T12:42:39.024Z,7292.00
2018-02-14T12:43:39.024Z,7228.00